Time;durP1;ratioP1;P1;durP2;ratioP2;P2;SDS_P1;SDS_P2;PMS_P1;PMS_P2;Temp;Humidity;BMP_temperature;BMP_pressure;BME280_temperature;BME280_humidity;BME280_pressure;Samples;Min_cycle;Max_cycle;Signal;HPM_P1;HPM_P2
2022/09/18 00:00:43;;;;;;;13.48;3.40;;;;;;;7.98;81.64;99135.92;2162542;81;21022;-80
2022/09/18 00:03:45;;;;;;;11.22;2.90;;;;;;;7.97;81.67;99135.61;2156330;82;21004;-77
2022/09/18 00:06:46;;;;;;;10.72;2.98;;;;;;;7.95;81.60;99131.00;2146402;81;21046;-77
2022/09/18 00:09:48;;;;;;;11.25;2.95;;;;;;;7.92;81.56;99124.74;2166309;82;21037;-78
2022/09/18 00:12:49;;;;;;;7.28;2.87;;;;;;;7.88;81.52;99129.21;2154648;82;21010;-78
2022/09/18 00:15:55;;;;;;;10.72;3.12;;;;;;;7.83;81.58;99131.07;2160716;81;20988;-78
2022/09/18 00:18:56;;;;;;;9.28;2.70;;;;;;;7.81;81.63;99123.81;2157198;82;21568;-80
2022/09/18 00:21:57;;;;;;;10.82;2.65;;;;;;;7.81;81.57;99126.45;2165439;82;21027;-79
2022/09/18 00:24:58;;;;;;;10.15;3.00;;;;;;;7.76;81.63;99120.86;2171082;82;20999;-79
2022/09/18 00:27:59;;;;;;;10.85;3.90;;;;;;;7.75;81.80;99121.87;2170377;81;20956;-78
2022/09/18 00:31:13;;;;;;;17.40;4.30;;;;;;;7.76;82.01;99120.36;2165143;82;21019;-77
2022/09/18 00:34:15;;;;;;;12.00;4.62;;;;;;;7.79;82.05;99117.87;2170367;82;21043;-79
2022/09/18 00:37:17;;;;;;;9.43;4.05;;;;;;;7.80;81.99;99115.07;2170372;80;21545;-79
2022/09/18 00:40:18;;;;;;;15.13;3.80;;;;;;;7.77;81.90;99114.57;2173620;81;21585;-78
2022/09/18 00:43:26;;;;;;;7.95;3.20;;;;;;;7.68;81.82;99117.75;2144005;82;20987;-79
2022/09/18 00:46:32;;;;;;;11.73;3.15;;;;;;;7.62;81.87;99119.27;2173881;82;23269;-79
2022/09/18 00:49:35;;;;;;;9.63;4.12;;;;;;;7.55;81.88;99117.00;2166290;82;21011;-80
2022/09/18 00:52:56;;;;;;;8.08;3.08;;;;;;;7.50;81.89;99120.64;2166250;82;20991;-79
2022/09/18 00:56:00;;;;;;;15.55;5.17;;;;;;;7.47;81.93;99124.95;2171754;80;21016;-78
2022/09/18 00:59:01;;;;;;;17.30;7.47;;;;;;;7.41;81.75;99123.81;2170131;82;21030;-79
2022/09/18 01:02:04;;;;;;;18.65;8.18;;;;;;;7.32;81.42;99121.36;2168413;82;21070;-79
2022/09/18 01:05:07;;;;;;;9.03;3.15;;;;;;;7.27;81.50;99113.16;2171506;82;20973;-78
2022/09/18 01:08:32;;;;;;;12.30;4.15;;;;;;;7.22;81.85;99114.97;2171147;82;21023;-79
2022/09/18 01:12:00;;;;;;;11.30;3.10;;;;;;;7.18;81.57;99112.36;2166515;81;21015;-79
2022/09/18 01:15:38;;;;;;;5.97;2.50;;;;;;;7.10;81.75;99111.06;2165883;82;21052;-78
2022/09/18 01:18:52;;;;;;;11.83;3.35;;;;;;;7.05;81.84;99112.05;2164738;82;20980;-80
2022/09/18 01:22:36;;;;;;;5.17;2.52;;;;;;;7.01;81.95;99106.30;2151444;82;21056;-77
2022/09/18 01:26:05;;;;;;;10.88;2.65;;;;;;;6.99;82.05;99109.59;2155786;82;21038;-77
2022/09/18 01:29:43;;;;;;;10.15;2.67;;;;;;;6.99;82.07;99106.95;2128370;82;21052;-80
2022/09/18 01:32:58;;;;;;;6.70;2.47;;;;;;;6.93;81.86;99118.19;2162642;82;20979;-78
2022/09/18 01:36:03;;;;;;;5.03;2.30;;;;;;;6.92;81.93;99113.88;2158340;82;21030;-78
2022/09/18 01:39:19;;;;;;;10.82;3.95;;;;;;;6.87;81.78;99112.23;2160515;81;21054;-79
2022/09/18 01:42:25;;;;;;;18.60;8.75;;;;;;;6.81;81.74;99115.05;2156687;82;20981;-77
2022/09/18 01:45:34;;;;;;;12.82;4.08;;;;;;;6.79;82.00;99109.14;2161152;81;21030;-78
2022/09/18 01:48:43;;;;;;;11.12;3.98;;;;;;;6.83;82.14;99110.94;2164208;82;21010;-78
2022/09/18 01:52:08;;;;;;;8.53;3.22;;;;;;;6.82;82.05;99118.53;2158683;81;22439;-78
2022/09/18 01:55:15;;;;;;;7.53;2.35;;;;;;;6.79;82.03;99109.64;2156217;82;21064;-77
2022/09/18 01:58:21;;;;;;;10.93;2.40;;;;;;;6.79;82.13;99108.32;2163438;82;21066;-78
2022/09/18 02:01:28;;;;;;;7.20;2.30;;;;;;;6.77;82.24;99107.66;2139365;82;21009;-78
2022/09/18 02:04:35;;;;;;;9.50;2.70;;;;;;;6.73;82.35;99102.72;2161591;82;21072;-78
2022/09/18 02:07:57;;;;;;;6.83;2.52;;;;;;;6.73;82.50;99109.31;2159512;82;21465;-79
2022/09/18 02:11:05;;;;;;;6.85;2.45;;;;;;;6.78;82.79;99107.47;2154074;82;21048;-79
2022/09/18 02:14:18;;;;;;;8.83;2.30;;;;;;;6.82;82.99;99109.30;2159642;82;21038;-78
2022/09/18 02:17:40;;;;;;;8.13;2.52;;;;;;;6.87;83.09;99103.86;2157678;82;21121;-78
2022/09/18 02:20:45;;;;;;;12.88;4.05;;;;;;;6.92;83.19;99098.88;2160055;82;21095;-78
2022/09/18 02:23:47;;;;;;;6.67;2.75;;;;;;;6.98;83.21;99104.47;2171211;81;21589;-79
2022/09/18 02:26:50;;;;;;;9.15;2.50;;;;;;;7.02;83.29;99100.52;2174120;80;21530;-78
2022/09/18 02:29:55;;;;;;;7.78;2.27;;;;;;;7.05;83.42;99098.36;2173909;80;21480;-80
2022/09/18 02:32:57;;;;;;;10.35;2.52;;;;;;;7.11;83.50;99095.05;2175117;81;21008;-78
2022/09/18 02:36:25;;;;;;;13.38;2.87;;;;;;;7.19;83.59;99097.66;2174759;81;21476;-78
2022/09/18 02:39:35;;;;;;;8.45;2.55;;;;;;;7.25;83.70;99095.34;2173997;81;20972;-78
2022/09/18 02:43:18;;;;;;;8.23;2.35;;;;;;;7.32;83.72;99089.69;2172815;81;21003;-77
2022/09/18 02:46:33;;;;;;;12.75;2.30;;;;;;;7.37;83.67;99087.37;2173491;80;21075;-79
2022/09/18 02:50:03;;;;;;;12.33;2.80;;;;;;;7.41;83.77;99089.51;2155468;81;21579;-80
2022/09/18 02:53:29;;;;;;;11.55;2.77;;;;;;;7.45;83.72;99083.38;2177011;81;21040;-80
2022/09/18 02:56:38;;;;;;;7.10;2.30;;;;;;;7.52;83.86;99078.25;2179805;80;20994;-79
2022/09/18 02:59:45;;;;;;;4.30;2.10;;;;;;;7.58;83.90;99074.92;2172665;81;21056;-79
2022/09/18 03:02:51;;;;;;;5.00;2.00;;;;;;;7.63;83.88;99076.05;2150233;81;21003;-78
2022/09/18 03:05:56;;;;;;;6.05;2.05;;;;;;;7.70;83.98;99076.16;2150884;81;20957;-78
2022/09/18 03:08:58;;;;;;;4.95;1.57;;;;;;;7.72;83.97;99076.83;2172903;81;21476;-78
2022/09/18 03:12:01;;;;;;;7.45;1.85;;;;;;;7.75;84.04;99069.05;2174355;80;20992;-78
2022/09/18 03:15:06;;;;;;;3.77;1.50;;;;;;;7.76;84.06;99076.78;2174806;81;21023;-79
2022/09/18 03:18:08;;;;;;;5.87;1.60;;;;;;;7.79;84.14;99068.52;2174478;81;21036;-77
2022/09/18 03:21:09;;;;;;;4.17;1.62;;;;;;;7.85;84.19;99068.31;2175922;80;20939;-77
2022/09/18 03:24:11;;;;;;;3.20;1.52;;;;;;;7.90;84.17;99077.05;2171101;80;20984;-79
2022/09/18 03:27:16;;;;;;;4.83;1.62;;;;;;;7.89;84.23;99077.55;2171285;81;21002;-80
2022/09/18 03:30:18;;;;;;;3.45;1.77;;;;;;;7.90;84.29;99072.58;2172450;81;21033;-76
2022/09/18 03:33:19;;;;;;;2.95;1.50;;;;;;;7.96;84.44;99078.48;2175105;81;21313;-79
2022/09/18 03:36:20;;;;;;;3.33;1.52;;;;;;;7.98;84.39;99079.13;2175425;81;20977;-77
2022/09/18 03:39:23;;;;;;;3.05;1.40;;;;;;;8.01;84.45;99068.72;2177107;80;20999;-79
2022/09/18 03:42:25;;;;;;;2.25;0.85;;;;;;;8.05;84.38;99071.31;2175454;81;21477;-79
2022/09/18 03:45:27;;;;;;;3.08;1.22;;;;;;;8.07;84.42;99070.14;2173506;81;21583;-79
2022/09/18 03:48:28;;;;;;;2.05;1.00;;;;;;;8.12;84.40;99064.84;2174463;81;20998;-79
2022/09/18 03:51:29;;;;;;;5.22;1.10;;;;;;;8.15;84.33;99072.42;2175349;81;21004;-78
2022/09/18 03:54:30;;;;;;;0.98;0.80;;;;;;;8.20;84.35;99071.39;2173938;81;21018;-78
2022/09/18 03:57:49;;;;;;;1.67;0.85;;;;;;;8.23;84.23;99071.04;2172563;81;21011;-80
2022/09/18 04:00:55;;;;;;;3.12;0.90;;;;;;;8.24;84.19;99081.41;2172848;80;21051;-77
2022/09/18 04:03:58;;;;;;;2.55;0.82;;;;;;;8.24;84.21;99075.31;2175867;80;21087;-80
2022/09/18 04:07:01;;;;;;;3.00;0.70;;;;;;;8.25;84.22;99074.30;2172825;81;21055;-79
2022/09/18 04:10:21;;;;;;;4.97;0.88;;;;;;;8.27;84.28;99072.31;2174408;81;21150;-79
2022/09/18 04:13:22;;;;;;;3.83;1.15;;;;;;;8.30;84.34;99067.48;2175699;80;20990;-80
2022/09/18 04:16:23;;;;;;;1.65;0.70;;;;;;;8.34;84.37;99067.16;2175807;80;21039;-80
2022/09/18 04:19:25;;;;;;;3.45;1.00;;;;;;;8.38;84.37;99062.64;2175535;81;21092;-79
2022/09/18 04:22:27;;;;;;;1.80;0.90;;;;;;;8.44;84.43;99066.42;2173458;81;21520;-79
2022/09/18 04:25:28;;;;;;;0.75;0.60;;;;;;;8.50;84.33;99059.94;2174931;81;20997;-78
2022/09/18 04:28:30;;;;;;;0.80;0.60;;;;;;;8.52;84.20;99060.56;2171000;81;21071;-81
2022/09/18 04:31:32;;;;;;;2.80;0.80;;;;;;;8.55;84.28;99063.35;2172492;81;20947;-74
2022/09/18 04:34:37;;;;;;;3.47;0.90;;;;;;;8.57;84.33;99057.90;2173141;81;21015;-79
2022/09/18 04:37:38;;;;;;;0.70;0.70;;;;;;;8.57;84.40;99062.68;2173528;81;21017;-78
2022/09/18 04:40:39;;;;;;;2.20;0.82;;;;;;;8.60;84.41;99062.83;2171790;81;21501;-79
2022/09/18 04:43:40;;;;;;;1.47;0.68;;;;;;;8.56;84.45;99061.05;2170302;81;20990;-78
2022/09/18 04:46:42;;;;;;;0.60;0.60;;;;;;;8.58;84.43;99064.82;2174910;81;20966;-77
2022/09/18 04:49:44;;;;;;;2.22;1.00;;;;;;;8.61;84.51;99070.56;2175568;81;21067;-78
2022/09/18 04:52:46;;;;;;;2.45;0.65;;;;;;;8.63;84.45;99071.21;2175702;81;21001;-77
2022/09/18 04:55:48;;;;;;;1.90;0.70;;;;;;;8.64;84.39;99066.23;2175047;81;21032;-77
2022/09/18 04:58:50;;;;;;;2.12;0.70;;;;;;;8.67;84.28;99070.34;2175876;81;20991;-79
2022/09/18 05:01:51;;;;;;;0.50;0.50;;;;;;;8.68;84.36;99070.69;2172926;81;20988;-79
2022/09/18 05:04:52;;;;;;;4.40;0.98;;;;;;;8.71;84.30;99075.61;2172102;81;20987;-78
2022/09/18 05:08:03;;;;;;;0.90;0.90;;;;;;;8.69;84.32;99073.64;2168791;81;20995;-79
2022/09/18 05:11:04;;;;;;;1.27;0.85;;;;;;;8.73;84.41;99068.33;2172370;81;21539;-77
2022/09/18 05:14:07;;;;;;;1.52;0.70;;;;;;;8.77;84.42;99069.59;2175443;81;20987;-80
2022/09/18 05:17:09;;;;;;;0.50;0.50;;;;;;;8.79;84.28;99072.89;2172558;81;21017;-78
2022/09/18 05:20:12;;;;;;;0.72;0.70;;;;;;;8.83;84.35;99076.80;2171317;81;21849;-79
2022/09/18 05:23:15;;;;;;;1.57;0.80;;;;;;;8.84;84.32;99081.59;2170967;81;21088;-79
2022/09/18 05:26:16;;;;;;;0.93;0.80;;;;;;;8.85;84.26;99073.99;2176899;80;20994;-78
2022/09/18 05:29:17;;;;;;;2.08;1.15;;;;;;;8.87;84.25;99076.78;2180526;81;21050;-78
2022/09/18 05:32:19;;;;;;;1.40;0.90;;;;;;;8.87;84.23;99081.22;2173436;80;20994;-76
2022/09/18 05:35:21;;;;;;;3.92;0.80;;;;;;;8.86;84.23;99080.41;2180859;80;21073;-77
2022/09/18 05:38:26;;;;;;;1.30;0.70;;;;;;;8.87;84.27;99078.10;2175136;81;21033;-80
2022/09/18 05:41:27;;;;;;;2.62;0.82;;;;;;;8.89;84.30;99079.23;2178807;80;21081;-78
2022/09/18 05:44:28;;;;;;;0.62;0.62;;;;;;;8.90;84.39;99087.50;2177315;80;20990;-78
2022/09/18 05:47:34;;;;;;;0.98;0.80;;;;;;;8.93;84.63;99077.38;2176544;80;20963;-80
2022/09/18 05:50:35;;;;;;;6.28;1.07;;;;;;;8.95;84.58;99083.31;2181422;80;20996;-78
2022/09/18 05:53:36;;;;;;;2.47;0.80;;;;;;;8.96;84.71;99076.19;2178924;80;21006;-80
2022/09/18 05:56:40;;;;;;;5.42;1.47;;;;;;;8.94;84.75;99080.33;2179223;80;20979;-78
2022/09/18 05:59:41;;;;;;;2.05;0.80;;;;;;;8.90;84.92;99085.67;2178383;80;21710;-78
2022/09/18 06:02:42;;;;;;;1.02;0.60;;;;;;;8.86;85.14;99081.73;2173762;81;21067;-80
2022/09/18 06:05:51;;;;;;;0.82;0.80;;;;;;;8.85;85.29;99088.54;2174236;81;21451;-81
2022/09/18 06:08:54;;;;;;;1.42;0.82;;;;;;;8.80;85.33;99085.10;2176475;81;21037;-80
2022/09/18 06:11:57;;;;;;;0.95;0.70;;;;;;;8.80;85.44;99084.28;2174144;81;21057;-79
2022/09/18 06:14:58;;;;;;;1.10;1.00;;;;;;;8.82;85.50;99084.43;2180617;80;20963;-79
2022/09/18 06:17:59;;;;;;;2.92;1.30;;;;;;;8.90;85.71;99080.89;2183902;80;20960;-78
2022/09/18 06:21:00;;;;;;;1.50;1.32;;;;;;;8.97;85.66;99079.96;2178490;80;21075;-78
2022/09/18 06:24:03;;;;;;;3.58;2.25;;;;;;;9.15;85.81;99080.94;2187796;80;21074;-80
2022/09/18 06:27:09;;;;;;;2.85;1.35;;;;;;;9.40;85.86;99085.92;2190948;80;20995;-77
2022/09/18 06:30:12;;;;;;;2.37;1.65;;;;;;;9.59;85.70;99079.25;2192912;80;21005;-79
2022/09/18 06:33:14;;;;;;;2.65;1.60;;;;;;;9.69;85.46;99077.13;2189566;80;21019;-78
2022/09/18 06:36:15;;;;;;;1.45;1.30;;;;;;;9.78;85.37;99073.36;2187520;80;20986;-79
2022/09/18 06:39:18;;;;;;;2.42;1.35;;;;;;;9.86;85.36;99074.57;2188731;80;21026;-79
2022/09/18 06:42:21;;;;;;;1.40;1.17;;;;;;;9.88;85.04;99079.19;2186296;80;21053;-80
2022/09/18 06:45:39;;;;;;;5.55;3.42;;;;;;;9.97;85.25;99079.89;2188418;80;21839;-78
2022/09/18 06:48:40;;;;;;;5.67;3.85;;;;;;;10.15;85.48;99080.77;2187745;80;21474;-80
2022/09/18 06:51:42;;;;;;;2.72;1.55;;;;;;;10.22;85.22;99080.34;2188861;80;21095;-78
2022/09/18 06:54:45;;;;;;;1.40;1.20;;;;;;;10.32;84.99;99079.53;2189997;80;21031;-81
2022/09/18 06:57:55;;;;;;;1.77;1.37;;;;;;;10.42;84.73;99086.37;2191156;80;20976;-80
2022/09/18 07:00:59;;;;;;;1.40;1.30;;;;;;;10.56;84.99;99085.46;2189097;80;20963;-77
2022/09/18 07:04:02;;;;;;;1.57;0.95;;;;;;;10.70;84.86;99092.99;2187128;80;21507;-81
2022/09/18 07:07:08;;;;;;;1.45;1.12;;;;;;;10.83;84.46;99092.28;2190938;80;20997;-81
2022/09/18 07:10:09;;;;;;;1.37;0.95;;;;;;;10.93;84.42;99080.83;2189949;80;21465;-78
2022/09/18 07:13:13;;;;;;;3.05;1.10;;;;;;;11.07;83.79;99105.63;2185204;80;21058;-78
2022/09/18 07:16:16;;;;;;;1.82;1.27;;;;;;;11.25;84.07;99101.13;2190054;80;20991;-80
2022/09/18 07:19:17;;;;;;;3.62;1.70;;;;;;;11.29;82.99;99101.04;2190300;80;21670;-79
2022/09/18 07:22:18;;;;;;;1.65;1.55;;;;;;;11.24;82.88;99091.03;2187435;80;21579;-80
2022/09/18 07:25:22;;;;;;;3.42;1.62;;;;;;;11.14;82.59;99099.33;2163409;80;21092;-78
2022/09/18 07:28:23;;;;;;;2.02;1.77;;;;;;;11.01;82.14;99105.90;2160629;82;21008;-80
2022/09/18 07:31:25;;;;;;;3.15;1.70;;;;;;;10.91;82.60;99104.09;2157941;82;21006;-80
2022/09/18 07:34:28;;;;;;;2.08;1.98;;;;;;;10.89;82.69;99108.25;2154410;82;21017;-78
2022/09/18 07:37:30;;;;;;;4.50;2.02;;;;;;;10.80;82.42;99113.91;2157984;82;20977;-80
2022/09/18 07:40:34;;;;;;;3.47;2.52;;;;;;;10.62;82.36;99105.91;2156070;81;21042;-78
2022/09/18 07:43:39;;;;;;;7.80;3.65;;;;;;;10.51;82.81;99110.41;2158818;81;20981;-78
2022/09/18 07:46:40;;;;;;;7.58;4.35;;;;;;;10.43;83.14;99110.53;2165748;82;21018;-79
2022/09/18 07:49:42;;;;;;;4.47;2.60;;;;;;;10.34;84.21;99093.13;2160416;82;21049;-79
2022/09/18 07:52:56;;;;;;;3.80;2.52;;;;;;;10.34;84.21;99093.13;2163439;82;21104;-79
2022/09/18 07:56:00;;;;;;;3.62;2.58;;;;;;;10.47;84.28;99100.70;2164195;81;21093;-79
2022/09/18 07:59:01;;;;;;;3.58;2.40;;;;;;;10.78;84.39;99118.06;2156721;82;21049;-79
2022/09/18 08:02:04;;;;;;;2.95;2.35;;;;;;;10.99;84.37;99117.21;2159867;81;21522;-80
2022/09/18 08:05:07;;;;;;;3.08;2.77;;;;;;;11.19;84.22;99112.03;2163188;82;21021;-79
2022/09/18 08:08:16;;;;;;;4.10;3.10;;;;;;;11.37;84.11;99110.98;2161566;81;20987;-79
2022/09/18 08:11:28;;;;;;;3.47;2.40;;;;;;;11.59;84.23;99109.06;2158746;81;21062;-79
2022/09/18 08:14:31;;;;;;;2.98;2.55;;;;;;;11.63;83.29;99118.30;2162025;82;20979;-79
2022/09/18 08:17:45;;;;;;;1.95;1.82;;;;;;;11.60;82.90;99124.00;2157961;81;21085;-78
2022/09/18 08:20:56;;;;;;;2.25;2.05;;;;;;;11.56;82.66;99118.75;2139295;81;21061;-79
2022/09/18 08:23:59;;;;;;;4.00;2.50;;;;;;;11.52;82.77;99128.66;2167081;80;20985;-78
2022/09/18 08:27:02;;;;;;;2.60;2.40;;;;;;;11.50;82.84;99125.37;2194190;80;20979;-79
2022/09/18 08:30:07;;;;;;;3.02;2.17;;;;;;;11.50;82.62;99124.86;2199813;80;21045;-79
2022/09/18 08:33:10;;;;;;;5.85;2.83;;;;;;;11.55;82.69;99122.44;2194435;80;21001;-79
2022/09/18 08:36:11;;;;;;;3.05;2.30;;;;;;;11.64;82.95;99119.92;2195155;80;21028;-80
2022/09/18 08:39:15;;;;;;;4.40;2.60;;;;;;;11.87;82.84;99114.31;2193152;80;21006;-81
2022/09/18 08:42:50;;;;;;;3.65;2.58;;;;;;;12.02;82.82;99113.33;2195929;80;21076;-77
2022/09/18 08:46:07;;;;;;;2.85;1.82;;;;;;;12.26;82.73;99118.61;2191654;80;21018;-81
2022/09/18 08:49:33;;;;;;;7.22;2.00;;;;;;;12.59;82.03;99115.19;2192593;80;21024;-80
2022/09/18 08:52:41;;;;;;;2.15;1.47;;;;;;;12.88;81.99;99110.77;2200565;80;20995;-77
2022/09/18 08:55:55;;;;;;;2.85;2.02;;;;;;;13.07;81.33;99106.97;2193883;80;21512;-80
2022/09/18 08:59:09;;;;;;;3.08;1.70;;;;;;;12.98;79.38;99104.52;2190361;80;21016;-77
2022/09/18 09:02:19;;;;;;;3.67;1.55;;;;;;;12.89;79.65;99114.23;2190811;80;21601;-79
2022/09/18 09:05:25;;;;;;;1.72;1.45;;;;;;;12.87;79.77;99111.80;2195839;80;21062;-77
2022/09/18 09:09:06;;;;;;;3.17;1.70;;;;;;;12.70;79.75;99114.58;2193599;80;21088;-79
2022/09/18 09:12:19;;;;;;;6.40;2.50;;;;;;;12.53;80.00;99132.78;2195058;80;21498;-81
2022/09/18 09:15:32;;;;;;;2.40;1.55;;;;;;;12.22;80.22;99139.48;2191585;80;21063;-80
2022/09/18 09:18:52;;;;;;;3.62;1.90;;;;;;;11.86;79.96;99158.38;2193492;80;21079;-79
2022/09/18 09:22:06;;;;;;;5.28;1.30;;;;;;;11.57;80.51;99156.28;2164324;80;21050;-81
2022/09/18 09:25:43;;;;;;;1.40;1.20;;;;;;;11.39;80.63;99143.50;2189412;80;21521;-80
2022/09/18 09:28:54;;;;;;;3.37;0.90;;;;;;;11.16;80.28;99149.08;2183478;80;21058;-80
2022/09/18 09:32:27;;;;;;;1.15;1.00;;;;;;;10.98;80.63;99146.08;2190444;80;21070;-81
2022/09/18 09:35:46;;;;;;;1.35;1.20;;;;;;;10.93;81.12;99151.16;2191959;80;21003;-79
2022/09/18 09:39:16;;;;;;;1.98;1.75;;;;;;;10.86;81.66;99155.59;2187020;80;21472;-81
2022/09/18 09:42:28;;;;;;;1.77;1.45;;;;;;;10.77;81.80;99156.23;2188960;80;20992;-79
2022/09/18 09:45:47;;;;;;;2.47;1.55;;;;;;;10.72;82.27;99158.63;2189139;80;21006;-84
2022/09/18 09:49:01;;;;;;;3.07;1.87;;;;;;;10.73;82.57;99157.13;2187912;80;21027;-81
2022/09/18 09:52:23;;;;;;;1.60;1.10;;;;;;;10.71;83.03;99175.06;2184567;80;21002;-83
2022/09/18 09:55:31;;;;;;;1.12;0.62;;;;;;;10.66;83.32;99178.78;2193883;80;21092;-81
2022/09/18 09:58:55;;;;;;;1.67;1.07;;;;;;;10.53;82.88;99181.30;2187457;80;21450;-83
2022/09/18 10:02:21;;;;;;;0.53;0.53;;;;;;;10.42;83.29;99189.28;2191048;80;21069;-78
2022/09/18 10:05:46;;;;;;;0.40;0.40;;;;;;;10.38;83.69;99192.48;2183840;80;20975;-81
2022/09/18 10:09:08;;;;;;;2.30;0.90;;;;;;;10.37;84.40;99195.64;2195331;80;21376;-81
2022/09/18 10:12:28;;;;;;;2.02;1.25;;;;;;;10.38;84.73;99205.74;2193094;80;21431;-79
2022/09/18 10:15:38;;;;;;;1.57;1.15;;;;;;;10.39;84.60;99204.24;2192646;80;21328;-81
2022/09/18 10:18:47;;;;;;;1.00;1.00;;;;;;;10.41;84.76;99215.97;2192014;80;21042;-81
2022/09/18 10:21:53;;;;;;;1.37;1.15;;;;;;;10.41;84.83;99219.44;2189824;80;21085;-80
2022/09/18 10:25:03;;;;;;;1.80;0.85;;;;;;;10.20;84.67;99192.37;2184015;80;21064;-80
2022/09/18 10:28:05;;;;;;;1.87;0.90;;;;;;;10.32;84.87;99225.36;2176851;80;21589;-80
2022/09/18 10:31:10;;;;;;;3.72;1.50;;;;;;;10.29;84.90;99224.92;2175057;80;21074;-81
2022/09/18 10:34:39;;;;;;;3.90;1.27;;;;;;;10.26;84.87;99233.22;2148895;81;21047;-81
2022/09/18 10:37:42;;;;;;;2.85;1.20;;;;;;;10.29;85.50;99229.72;2161190;81;21078;-78
2022/09/18 10:40:45;;;;;;;3.70;1.32;;;;;;;10.36;85.24;99247.53;2183574;80;21050;-80
2022/09/18 10:44:13;;;;;;;2.80;1.32;;;;;;;10.36;85.24;99247.53;2175597;81;20952;-80
2022/09/18 10:47:23;;;;;;;2.85;1.10;;;;;;;10.35;85.07;99257.83;2175981;81;20991;-79
2022/09/18 10:50:25;;;;;;;5.15;1.50;;;;;;;10.40;85.62;99250.95;2176083;81;21020;-80
2022/09/18 10:53:33;;;;;;;3.67;1.87;;;;;;;10.48;85.68;99265.95;2175578;81;21490;-79
2022/09/18 10:56:36;;;;;;;3.27;1.67;;;;;;;10.48;86.01;99256.66;2172162;80;21025;-79
2022/09/18 10:59:39;;;;;;;4.87;1.75;;;;;;;10.48;85.77;99265.95;2173329;81;21092;-79
2022/09/18 11:02:59;;;;;;;4.53;1.60;;;;;;;10.55;86.09;99263.66;2180523;80;21034;-80
2022/09/18 11:06:10;;;;;;;7.25;2.67;;;;;;;10.66;86.46;99263.69;2173699;81;21000;-80
2022/09/18 11:09:18;;;;;;;4.55;1.60;;;;;;;10.69;85.98;99260.65;2172413;81;21029;-80
2022/09/18 11:12:24;;;;;;;3.95;1.72;;;;;;;10.66;86.15;99271.64;2165040;80;21093;-80
2022/09/18 11:15:32;;;;;;;7.97;2.17;;;;;;;10.55;85.99;99274.78;2170573;80;21019;-78
2022/09/18 11:18:33;;;;;;;4.75;1.77;;;;;;;10.45;85.10;99275.61;2174907;81;20962;-81
2022/09/18 11:21:53;;;;;;;6.58;2.37;;;;;;;10.40;85.36;99277.98;2175441;80;21020;-80
2022/09/18 11:25:21;;;;;;;9.73;2.65;;;;;;;10.33;85.17;99277.89;2172305;81;21055;-78
2022/09/18 11:28:31;;;;;;;9.80;2.45;;;;;;;10.28;85.82;99289.07;2171884;82;21027;-80
2022/09/18 11:31:51;;;;;;;9.23;2.25;;;;;;;10.25;85.97;99290.73;2171144;82;21001;-77
2022/09/18 11:35:03;;;;;;;9.38;2.50;;;;;;;10.30;86.17;99293.69;2169506;82;21575;-79
2022/09/18 11:38:07;;;;;;;6.20;2.25;;;;;;;10.35;85.66;99300.25;2168844;82;21565;-81
2022/09/18 11:41:14;;;;;;;6.92;2.00;;;;;;;10.38;85.50;99295.91;2168318;82;22354;-78
2022/09/18 11:44:32;;;;;;;10.40;2.70;;;;;;;10.27;85.36;99276.80;2136404;82;21059;-80
2022/09/18 11:47:43;;;;;;;5.55;2.20;;;;;;;10.45;85.28;99291.52;2170508;82;21562;-79
2022/09/18 11:50:46;;;;;;;13.98;2.60;;;;;;;10.45;85.28;99291.52;2169021;82;21106;-81
2022/09/18 11:53:54;;;;;;;11.68;2.90;;;;;;;10.49;85.63;99293.59;2166034;82;20971;-80
2022/09/18 11:57:02;;;;;;;11.08;3.08;;;;;;;10.54;85.64;99287.73;2170897;81;22124;-80
2022/09/18 12:00:12;;;;;;;9.88;3.17;;;;;;;10.62;85.63;99291.61;2165311;82;21031;-80
2022/09/18 12:03:24;;;;;;;9.33;3.08;;;;;;;10.66;85.49;99286.74;2172833;81;21575;-80
2022/09/18 12:06:49;;;;;;;9.28;3.33;;;;;;;10.66;85.21;99287.56;2159382;82;21041;-80
2022/09/18 12:09:56;;;;;;;12.00;3.42;;;;;;;10.65;85.16;99280.62;2168006;82;21046;-79
2022/09/18 12:13:39;;;;;;;12.95;3.10;;;;;;;10.76;85.23;99280.64;2167048;82;21035;-80
2022/09/18 12:16:53;;;;;;;10.68;3.15;;;;;;;10.94;85.52;99282.84;2170446;82;21036;-79
2022/09/18 12:20:03;;;;;;;12.82;3.45;;;;;;;11.23;85.64;99288.52;2170252;82;21030;-80
2022/09/18 12:23:05;;;;;;;13.93;3.37;;;;;;;11.44;85.10;99290.34;2169045;82;20991;-79
2022/09/18 12:26:27;;;;;;;7.28;2.92;;;;;;;11.55;84.54;99283.69;2173962;81;20999;-81
2022/09/18 12:29:57;;;;;;;6.75;2.40;;;;;;;11.53;82.96;99281.72;2176541;81;21072;-76
2022/09/18 12:33:12;;;;;;;8.90;2.85;;;;;;;11.37;82.27;99290.27;2167799;80;20952;-77
2022/09/18 12:36:57;;;;;;;10.85;2.75;;;;;;;11.20;82.75;99290.23;2175324;81;20984;-81
2022/09/18 12:40:38;;;;;;;17.67;3.37;;;;;;;11.19;83.09;99279.30;2172571;81;21501;-80
2022/09/18 12:44:19;;;;;;;9.33;3.17;;;;;;;11.09;83.09;99287.58;2178976;81;21035;-80
2022/09/18 12:47:29;;;;;;;14.05;4.05;;;;;;;11.13;83.53;99286.71;2173810;80;20972;-79
2022/09/18 12:51:09;;;;;;;11.80;3.77;;;;;;;11.17;83.52;99282.13;2171192;81;21032;-80
2022/09/18 12:54:24;;;;;;;15.85;2.92;;;;;;;11.19;83.44;99280.12;2174905;81;21075;-81
2022/09/18 12:57:58;;;;;;;11.38;3.15;;;;;;;11.39;83.61;99280.80;2172905;81;21012;-79
2022/09/18 13:01:05;;;;;;;11.55;3.27;;;;;;;11.59;83.46;99273.78;2172745;81;21008;-81
2022/09/18 13:04:32;;;;;;;7.35;2.72;;;;;;;11.79;83.30;99279.23;2175328;81;20983;-79
2022/09/18 13:07:53;;;;;;;13.38;3.52;;;;;;;11.95;82.44;99274.67;2174372;81;21003;-81
2022/09/18 13:11:05;;;;;;;10.80;2.90;;;;;;;12.04;81.64;99276.95;2166678;80;21542;-80
2022/09/18 13:14:26;;;;;;;9.00;3.02;;;;;;;12.16;81.74;99281.20;2172035;81;20982;-76
2022/09/18 13:17:33;;;;;;;;;;;;;;;12.23;81.53;99275.94;2179895;81;21564;-81
2022/09/18 13:20:38;;;;;;;12.98;3.10;;;;;;;12.32;81.77;99277.40;2173214;81;20126;-79
2022/09/18 13:23:42;;;;;;;9.03;3.42;;;;;;;12.44;81.31;99278.45;2176754;81;21516;-80
2022/09/18 13:26:47;;;;;;;9.55;3.02;;;;;;;12.45;80.32;99279.30;2189532;80;21025;-81
2022/09/18 13:29:55;;;;;;;10.15;3.10;;;;;;;12.44;80.52;99273.14;2191759;80;21047;-81
2022/09/18 13:32:58;;;;;;;12.75;4.33;;;;;;;12.52;80.52;99274.81;2187770;80;21022;-79
2022/09/18 13:36:00;;;;;;;11.12;3.83;;;;;;;12.63;80.93;99278.73;2184646;80;21002;-80
2022/09/18 13:39:22;;;;;;;13.20;3.15;;;;;;;12.79;81.09;99272.53;2159108;80;21097;-80
2022/09/18 13:42:36;;;;;;;8.85;3.15;;;;;;;13.01;80.92;99268.38;2192627;80;20999;-79
2022/09/18 13:45:38;;;;;;;10.25;2.62;;;;;;;13.33;80.37;99270.77;2186002;80;21010;-80
2022/09/18 13:48:44;;;;;;;10.68;2.80;;;;;;;13.64;79.84;99261.33;2189168;80;20967;-80
2022/09/18 13:51:46;;;;;;;12.13;2.30;;;;;;;13.75;77.94;99259.36;2186073;80;20978;-81
2022/09/18 13:55:15;;;;;;;8.90;2.80;;;;;;;13.63;77.32;99263.18;2184367;80;21049;-80
2022/09/18 13:58:34;;;;;;;5.72;2.45;;;;;;;13.56;77.30;99273.53;2181866;80;21034;-80
2022/09/18 14:01:50;;;;;;;5.20;2.50;;;;;;;13.35;75.68;99277.25;2171433;80;21018;-80
2022/09/18 14:05:29;;;;;;;6.05;2.17;;;;;;;13.09;75.85;99276.66;2191120;80;21044;-80
2022/09/18 14:08:37;;;;;;;9.68;3.05;;;;;;;12.94;76.77;99269.69;2187127;80;20928;-79
2022/09/18 14:11:38;;;;;;;7.35;2.37;;;;;;;12.92;76.26;99266.42;2191284;80;21014;-79
2022/09/18 14:14:41;;;;;;;5.47;2.02;;;;;;;12.94;75.72;99269.69;2192313;80;21005;-78
2022/09/18 14:18:05;;;;;;;7.22;1.70;;;;;;;12.98;75.78;99268.79;2157461;80;21013;-80
2022/09/18 14:21:23;;;;;;;6.65;2.20;;;;;;;13.06;75.37;99259.25;2190400;80;21041;-81
2022/09/18 14:24:36;;;;;;;9.70;2.60;;;;;;;13.08;74.79;99261.72;2187887;80;21656;-81
2022/09/18 14:27:56;;;;;;;8.65;2.17;;;;;;;13.12;74.83;99260.28;2178461;80;21042;-79
2022/09/18 14:31:24;;;;;;;5.92;1.72;;;;;;;13.07;73.78;99255.58;2193797;80;20976;-81
2022/09/18 14:34:39;;;;;;;6.33;1.75;;;;;;;12.97;73.92;99262.63;2193595;80;21054;-81
2022/09/18 14:37:41;;;;;;;8.80;2.00;;;;;;;12.91;73.81;99260.78;2198282;80;21077;-80
2022/09/18 14:40:59;;;;;;;3.98;1.52;;;;;;;12.92;72.67;99253.60;2190880;80;21007;-81
2022/09/18 14:44:05;;;;;;;4.03;1.80;;;;;;;12.90;71.25;99255.67;2193269;80;20956;-80
2022/09/18 14:47:10;;;;;;;6.28;1.42;;;;;;;12.88;71.89;99255.86;2178248;80;21590;-80
2022/09/18 14:50:36;;;;;;;5.95;1.65;;;;;;;12.91;71.59;99251.97;2196879;80;20988;-79
2022/09/18 14:53:44;;;;;;;7.50;1.40;;;;;;;12.92;71.86;99254.45;2175241;80;21025;-80
2022/09/18 14:56:49;;;;;;;5.72;1.55;;;;;;;12.90;70.71;99251.16;2192072;80;21014;-81